sensor_id;sensor_type;location;lat;lon;timestamp;pressure;altitude;pressure_sealevel;temperature;humidity
6090;BME280;3073;42.660;23.316;2023-04-21T00:00:00;94097.78;;;21.66;41.04
6090;BME280;3073;42.660;23.316;2023-04-21T00:02:27;94095.41;;;21.52;40.98
6090;BME280;3073;42.660;23.316;2023-04-21T00:04:54;94086.97;;;22.14;40.03
6090;BME280;3073;42.660;23.316;2023-04-21T00:07:21;94084.72;;;21.25;41.24
6090;BME280;3073;42.660;23.316;2023-04-21T00:09:50;94083.69;;;21.17;41.11
6090;BME280;3073;42.660;23.316;2023-04-21T00:12:17;94084.69;;;20.78;42.22
6090;BME280;3073;42.660;23.316;2023-04-21T00:14:45;94087.91;;;21.30;40.88
6090;BME280;3073;42.660;23.316;2023-04-21T00:17:11;94085.28;;;21.68;40.91
6090;BME280;3073;42.660;23.316;2023-04-21T00:19:38;94088.25;;;20.14;42.89
6090;BME280;3073;42.660;23.316;2023-04-21T00:22:05;94090.53;;;19.89;43.36
6090;BME280;3073;42.660;23.316;2023-04-21T00:24:36;94087.97;;;20.24;43.00
6090;BME280;3073;42.660;23.316;2023-04-21T00:27:04;94087.97;;;21.04;41.67
6090;BME280;3073;42.660;23.316;2023-04-21T00:29:31;94087.78;;;21.56;40.69
6090;BME280;3073;42.660;23.316;2023-04-21T00:31:58;94093.31;;;21.46;40.36
6090;BME280;3073;42.660;23.316;2023-04-21T00:34:26;94089.69;;;22.18;39.70
6090;BME280;3073;42.660;23.316;2023-04-21T00:36:53;94087.53;;;21.70;40.05
6090;BME280;3073;42.660;23.316;2023-04-21T00:39:20;94093.03;;;20.92;41.27
6090;BME280;3073;42.660;23.316;2023-04-21T00:41:47;94095.16;;;21.75;40.22
6090;BME280;3073;42.660;23.316;2023-04-21T00:44:15;94091.56;;;22.29;39.40
6090;BME280;3073;42.660;23.316;2023-04-21T00:46:42;94093.53;;;22.32;38.79
6090;BME280;3073;42.660;23.316;2023-04-21T00:49:09;94084.25;;;21.61;39.96
6090;BME280;3073;42.660;23.316;2023-04-21T00:51:37;94080.69;;;20.98;40.35
6090;BME280;3073;42.660;23.316;2023-04-21T00:54:06;94081.19;;;22.08;39.33
6090;BME280;3073;42.660;23.316;2023-04-21T00:56:34;94082.78;;;20.58;41.49
6090;BME280;3073;42.660;23.316;2023-04-21T00:59:01;94082.22;;;20.90;41.47
6090;BME280;3073;42.660;23.316;2023-04-21T01:01:30;94083.69;;;21.17;41.03
6090;BME280;3073;42.660;23.316;2023-04-21T01:03:59;94087.22;;;21.04;40.99
6090;BME280;3073;42.660;23.316;2023-04-21T01:06:27;94084.00;;;20.18;42.36
6090;BME280;3073;42.660;23.316;2023-04-21T01:08:54;94083.13;;;20.94;41.23
6090;BME280;3073;42.660;23.316;2023-04-21T01:11:21;94084.78;;;20.27;41.82
6090;BME280;3073;42.660;23.316;2023-04-21T01:13:51;94075.16;;;21.08;40.67
6090;BME280;3073;42.660;23.316;2023-04-21T01:16:28;94081.13;;;21.96;39.37
6090;BME280;3073;42.660;23.316;2023-04-21T01:18:59;94086.41;;;20.74;41.08
6090;BME280;3073;42.660;23.316;2023-04-21T01:21:26;94083.84;;;20.57;41.23
6090;BME280;3073;42.660;23.316;2023-04-21T01:23:55;94080.13;;;20.75;41.44
6090;BME280;3073;42.660;23.316;2023-04-21T01:26:22;94080.38;;;21.96;39.79
6090;BME280;3073;42.660;23.316;2023-04-21T01:28:49;94079.00;;;20.93;41.62
6090;BME280;3073;42.660;23.316;2023-04-21T01:31:17;94074.25;;;21.71;39.89
6090;BME280;3073;42.660;23.316;2023-04-21T01:33:45;94079.88;;;19.91;42.46
6090;BME280;3073;42.660;23.316;2023-04-21T01:36:12;94072.19;;;21.27;40.86
6090;BME280;3073;42.660;23.316;2023-04-21T01:38:39;94075.03;;;22.67;38.77
6090;BME280;3073;42.660;23.316;2023-04-21T01:41:08;94067.75;;;23.17;38.03
6090;BME280;3073;42.660;23.316;2023-04-21T01:43:35;94073.47;;;22.86;38.34
6090;BME280;3073;42.660;23.316;2023-04-21T01:46:02;94072.97;;;23.05;38.05
6090;BME280;3073;42.660;23.316;2023-04-21T01:48:29;94067.19;;;22.87;38.08
6090;BME280;3073;42.660;23.316;2023-04-21T01:50:56;94070.84;;;22.21;39.21
6090;BME280;3073;42.660;23.316;2023-04-21T01:53:23;94066.72;;;21.78;39.58
6090;BME280;3073;42.660;23.316;2023-04-21T01:55:51;94064.13;;;22.20;38.65
6090;BME280;3073;42.660;23.316;2023-04-21T01:58:19;94062.97;;;21.67;39.69
6090;BME280;3073;42.660;23.316;2023-04-21T02:00:47;94064.63;;;22.13;39.36
6090;BME280;3073;42.660;23.316;2023-04-21T02:03:13;94061.97;;;21.80;39.57
6090;BME280;3073;42.660;23.316;2023-04-21T02:05:40;94065.69;;;21.03;40.99
6090;BME280;3073;42.660;23.316;2023-04-21T02:08:07;94068.53;;;21.28;40.80
6090;BME280;3073;42.660;23.316;2023-04-21T02:10:34;94060.28;;;20.79;41.10
6090;BME280;3073;42.660;23.316;2023-04-21T02:13:01;94064.84;;;21.79;39.80
6090;BME280;3073;42.660;23.316;2023-04-21T02:15:29;94067.09;;;21.01;41.47
6090;BME280;3073;42.660;23.316;2023-04-21T02:17:56;94064.44;;;21.77;39.91
6090;BME280;3073;42.660;23.316;2023-04-21T02:20:22;94061.38;;;21.25;41.04
6090;BME280;3073;42.660;23.316;2023-04-21T02:22:49;94059.72;;;21.20;40.69
6090;BME280;3073;42.660;23.316;2023-04-21T02:25:16;94062.06;;;20.41;41.92
6090;BME280;3073;42.660;23.316;2023-04-21T02:27:44;94061.16;;;20.37;42.32
6090;BME280;3073;42.660;23.316;2023-04-21T02:30:11;94064.84;;;20.82;41.67
6090;BME280;3073;42.660;23.316;2023-04-21T02:32:39;94063.59;;;20.08;42.93
6090;BME280;3073;42.660;23.316;2023-04-21T02:35:07;94063.72;;;20.54;42.11
6090;BME280;3073;42.660;23.316;2023-04-21T02:37:34;94058.06;;;20.26;42.41
6090;BME280;3073;42.660;23.316;2023-04-21T02:40:01;94065.41;;;20.33;42.37
6090;BME280;3073;42.660;23.316;2023-04-21T02:42:28;94063.56;;;20.42;42.57
6090;BME280;3073;42.660;23.316;2023-04-21T02:44:55;94062.38;;;20.31;42.89
6090;BME280;3073;42.660;23.316;2023-04-21T02:47:21;94063.06;;;21.21;41.25
6090;BME280;3073;42.660;23.316;2023-04-21T02:49:49;94072.47;;;20.87;41.85
6090;BME280;3073;42.660;23.316;2023-04-21T02:52:16;94069.53;;;20.34;42.68
6090;BME280;3073;42.660;23.316;2023-04-21T02:54:43;94064.06;;;20.27;42.72
6090;BME280;3073;42.660;23.316;2023-04-21T02:57:11;94067.25;;;20.41;43.17
6090;BME280;3073;42.660;23.316;2023-04-21T02:59:38;94067.34;;;21.17;41.88
6090;BME280;3073;42.660;23.316;2023-04-21T03:02:05;94064.72;;;21.75;40.90
6090;BME280;3073;42.660;23.316;2023-04-21T03:04:32;94065.41;;;20.96;41.71
6090;BME280;3073;42.660;23.316;2023-04-21T03:07:00;94058.19;;;21.48;41.29
6090;BME280;3073;42.660;23.316;2023-04-21T03:09:27;94065.44;;;21.64;41.34
6090;BME280;3073;42.660;23.316;2023-04-21T03:11:54;94063.25;;;21.66;41.04
6090;BME280;3073;42.660;23.316;2023-04-21T03:14:20;94060.81;;;21.69;40.91
6090;BME280;3073;42.660;23.316;2023-04-21T03:16:47;94070.78;;;20.91;42.04
6090;BME280;3073;42.660;23.316;2023-04-21T03:19:14;94066.31;;;20.54;42.48
6090;BME280;3073;42.660;23.316;2023-04-21T03:21:41;94074.88;;;20.37;42.77
6090;BME280;3073;42.660;23.316;2023-04-21T03:24:11;94070.00;;;19.28;44.96
6090;BME280;3073;42.660;23.316;2023-04-21T03:26:38;94065.56;;;20.36;43.34
6090;BME280;3073;42.660;23.316;2023-04-21T03:29:05;94064.59;;;20.67;42.58
6090;BME280;3073;42.660;23.316;2023-04-21T03:31:32;94067.22;;;20.58;43.00
6090;BME280;3073;42.660;23.316;2023-04-21T03:33:59;94067.84;;;19.30;44.62
6090;BME280;3073;42.660;23.316;2023-04-21T03:36:26;94074.19;;;19.55;44.11
6090;BME280;3073;42.660;23.316;2023-04-21T03:38:52;94080.38;;;20.27;43.07
6090;BME280;3073;42.660;23.316;2023-04-21T03:41:20;94080.19;;;20.07;43.52
6090;BME280;3073;42.660;23.316;2023-04-21T03:43:49;94081.97;;;19.63;43.58
6090;BME280;3073;42.660;23.316;2023-04-21T03:46:17;94080.78;;;19.95;44.13
6090;BME280;3073;42.660;23.316;2023-04-21T03:48:45;94082.25;;;20.82;42.25
6090;BME280;3073;42.660;23.316;2023-04-21T03:51:12;94079.31;;;20.92;42.34
6090;BME280;3073;42.660;23.316;2023-04-21T03:53:39;94087.81;;;21.18;41.66
6090;BME280;3073;42.660;23.316;2023-04-21T03:56:06;94085.13;;;21.94;40.76
6090;BME280;3073;42.660;23.316;2023-04-21T03:58:35;94095.81;;;20.87;41.76
6090;BME280;3073;42.660;23.316;2023-04-21T04:01:04;94092.50;;;21.25;41.31
6090;BME280;3073;42.660;23.316;2023-04-21T04:03:31;94088.47;;;21.36;41.28
6090;BME280;3073;42.660;23.316;2023-04-21T04:05:58;94095.31;;;21.02;41.92
6090;BME280;3073;42.660;23.316;2023-04-21T04:08:24;94098.78;;;20.43;42.93
6090;BME280;3073;42.660;23.316;2023-04-21T04:10:51;94103.63;;;20.70;42.71
6090;BME280;3073;42.660;23.316;2023-04-21T04:13:18;94102.44;;;22.11;40.44
6090;BME280;3073;42.660;23.316;2023-04-21T04:15:48;94099.84;;;21.23;41.25
6090;BME280;3073;42.660;23.316;2023-04-21T04:18:15;94107.44;;;20.81;41.67
6090;BME280;3073;42.660;23.316;2023-04-21T04:20:41;94106.34;;;20.91;41.91
6090;BME280;3073;42.660;23.316;2023-04-21T04:23:08;94111.47;;;21.17;41.45
6090;BME280;3073;42.660;23.316;2023-04-21T04:25:35;94113.66;;;21.44;41.33
6090;BME280;3073;42.660;23.316;2023-04-21T04:28:03;94118.00;;;21.23;41.67
6090;BME280;3073;42.660;23.316;2023-04-21T04:30:31;94125.97;;;21.18;41.61
6090;BME280;3073;42.660;23.316;2023-04-21T04:33:01;94127.13;;;20.57;42.38
6090;BME280;3073;42.660;23.316;2023-04-21T04:35:28;94126.69;;;20.29;43.24
6090;BME280;3073;42.660;23.316;2023-04-21T04:37:57;94115.91;;;20.99;42.29
6090;BME280;3073;42.660;23.316;2023-04-21T04:40:24;94129.22;;;19.77;43.40
6090;BME280;3073;42.660;23.316;2023-04-21T04:42:51;94130.66;;;20.43;42.95
6090;BME280;3073;42.660;23.316;2023-04-21T04:45:19;94126.81;;;19.98;44.31
6090;BME280;3073;42.660;23.316;2023-04-21T04:47:47;94132.97;;;21.08;42.61
6090;BME280;3073;42.660;23.316;2023-04-21T04:50:16;94139.56;;;22.32;40.52
6090;BME280;3073;42.660;23.316;2023-04-21T04:52:43;94138.22;;;21.76;40.75
6090;BME280;3073;42.660;23.316;2023-04-21T04:55:11;94140.84;;;20.23;43.60
6090;BME280;3073;42.660;23.316;2023-04-21T04:57:38;94140.50;;;20.93;42.74
6090;BME280;3073;42.660;23.316;2023-04-21T05:00:06;94135.50;;;20.79;42.53
6090;BME280;3073;42.660;23.316;2023-04-21T05:02:36;94134.28;;;20.08;43.86
6090;BME280;3073;42.660;23.316;2023-04-21T05:05:03;94136.41;;;20.83;43.18
6090;BME280;3073;42.660;23.316;2023-04-21T05:07:32;94139.75;;;22.27;40.45
6090;BME280;3073;42.660;23.316;2023-04-21T05:09:58;94136.31;;;21.64;41.62
6090;BME280;3073;42.660;23.316;2023-04-21T05:12:26;94146.72;;;21.18;42.38
6090;BME280;3073;42.660;23.316;2023-04-21T05:14:53;94138.41;;;21.33;41.85
6090;BME280;3073;42.660;23.316;2023-04-21T05:17:20;94144.38;;;22.00;40.86
6090;BME280;3073;42.660;23.316;2023-04-21T05:19:47;94137.28;;;21.80;41.22
6090;BME280;3073;42.660;23.316;2023-04-21T05:22:14;94145.00;;;20.58;43.18
6090;BME280;3073;42.660;23.316;2023-04-21T05:24:42;94147.50;;;21.18;42.69
6090;BME280;3073;42.660;23.316;2023-04-21T05:27:08;94142.34;;;20.07;44.57
6090;BME280;3073;42.660;23.316;2023-04-21T05:29:35;94137.09;;;21.94;41.55
6090;BME280;3073;42.660;23.316;2023-04-21T05:32:02;94145.47;;;22.62;41.00
6090;BME280;3073;42.660;23.316;2023-04-21T05:34:29;94143.72;;;22.66;40.63
6090;BME280;3073;42.660;23.316;2023-04-21T05:36:57;94143.66;;;22.95;40.01
6090;BME280;3073;42.660;23.316;2023-04-21T05:39:24;94153.28;;;22.94;39.59
6090;BME280;3073;42.660;23.316;2023-04-21T05:41:54;94146.47;;;21.78;42.12
6090;BME280;3073;42.660;23.316;2023-04-21T05:44:20;94141.09;;;22.74;40.55
6090;BME280;3073;42.660;23.316;2023-04-21T05:46:47;94144.97;;;23.01;40.27
6090;BME280;3073;42.660;23.316;2023-04-21T05:49:14;94146.09;;;21.21;43.09
6090;BME280;3073;42.660;23.316;2023-04-21T05:51:41;94147.28;;;22.61;41.03
6090;BME280;3073;42.660;23.316;2023-04-21T05:54:07;94152.38;;;22.78;40.42
6090;BME280;3073;42.660;23.316;2023-04-21T05:56:34;94145.66;;;22.77;40.15
6090;BME280;3073;42.660;23.316;2023-04-21T05:59:02;94143.25;;;23.29;40.01
6090;BME280;3073;42.660;23.316;2023-04-21T06:01:31;94147.09;;;24.17;38.47
6090;BME280;3073;42.660;23.316;2023-04-21T06:03:58;94139.53;;;21.23;42.67
6090;BME280;3073;42.660;23.316;2023-04-21T06:06:25;94141.81;;;21.92;41.89
6090;BME280;3073;42.660;23.316;2023-04-21T06:08:51;94141.28;;;22.69;41.12
6090;BME280;3073;42.660;23.316;2023-04-21T06:11:18;94134.69;;;23.17;39.94
6090;BME280;3073;42.660;23.316;2023-04-21T06:13:45;94138.50;;;25.27;37.56
6090;BME280;3073;42.660;23.316;2023-04-21T06:16:14;94139.06;;;23.97;39.02
6090;BME280;3073;42.660;23.316;2023-04-21T06:18:40;94128.25;;;26.00;36.28
6090;BME280;3073;42.660;23.316;2023-04-21T06:21:07;94140.72;;;26.61;35.66
6090;BME280;3073;42.660;23.316;2023-04-21T06:23:34;94144.97;;;24.74;38.02
6090;BME280;3073;42.660;23.316;2023-04-21T06:26:01;94134.09;;;26.67;35.41
6090;BME280;3073;42.660;23.316;2023-04-21T06:28:29;94144.75;;;25.54;36.32
6090;BME280;3073;42.660;23.316;2023-04-21T06:30:57;94136.41;;;27.10;35.46
6090;BME280;3073;42.660;23.316;2023-04-21T06:33:25;94143.16;;;27.80;34.36
6090;BME280;3073;42.660;23.316;2023-04-21T06:35:52;94138.44;;;28.45;33.34
6090;BME280;3073;42.660;23.316;2023-04-21T06:38:19;94139.69;;;27.76;33.90
6090;BME280;3073;42.660;23.316;2023-04-21T06:40:46;94136.72;;;26.13;35.65
6090;BME280;3073;42.660;23.316;2023-04-21T06:43:13;94134.25;;;24.24;38.05
6090;BME280;3073;42.660;23.316;2023-04-21T06:45:40;94122.75;;;22.71;40.59
6090;BME280;3073;42.660;23.316;2023-04-21T06:48:06;94134.16;;;24.20;38.79
6090;BME280;3073;42.660;23.316;2023-04-21T06:50:34;94132.91;;;22.96;40.64
6090;BME280;3073;42.660;23.316;2023-04-21T06:53:01;94130.78;;;24.20;38.64
6090;BME280;3073;42.660;23.316;2023-04-21T06:55:28;94137.53;;;23.96;38.63
6090;BME280;3073;42.660;23.316;2023-04-21T06:57:55;94123.63;;;24.04;38.99
6090;BME280;3073;42.660;23.316;2023-04-21T07:00:21;94118.94;;;26.19;36.18
6090;BME280;3073;42.660;23.316;2023-04-21T07:02:48;94118.59;;;25.85;36.65
6090;BME280;3073;42.660;23.316;2023-04-21T07:05:15;94122.91;;;25.46;37.35
6090;BME280;3073;42.660;23.316;2023-04-21T07:07:43;94115.09;;;25.97;36.16
6090;BME280;3073;42.660;23.316;2023-04-21T07:10:10;94119.53;;;24.43;38.24
6090;BME280;3073;42.660;23.316;2023-04-21T07:12:37;94117.59;;;25.12;37.41
6090;BME280;3073;42.660;23.316;2023-04-21T07:15:05;94121.22;;;25.23;37.40
6090;BME280;3073;42.660;23.316;2023-04-21T07:17:32;94124.19;;;26.57;36.10
6090;BME280;3073;42.660;23.316;2023-04-21T07:19:59;94130.91;;;25.22;37.12
6090;BME280;3073;42.660;23.316;2023-04-21T07:22:36;94132.31;;;25.98;36.50
6090;BME280;3073;42.660;23.316;2023-04-21T07:25:03;94125.53;;;25.31;36.71
6090;BME280;3073;42.660;23.316;2023-04-21T07:27:31;94127.13;;;26.36;35.86
6090;BME280;3073;42.660;23.316;2023-04-21T07:29:57;94131.34;;;26.22;35.69
6090;BME280;3073;42.660;23.316;2023-04-21T07:32:24;94119.19;;;27.81;34.06
6090;BME280;3073;42.660;23.316;2023-04-21T07:34:51;94126.38;;;29.10;32.50
6090;BME280;3073;42.660;23.316;2023-04-21T07:37:18;94117.78;;;31.16;30.66
6090;BME280;3073;42.660;23.316;2023-04-21T07:39:46;94112.53;;;30.12;31.57
6090;BME280;3073;42.660;23.316;2023-04-21T07:42:12;94125.09;;;28.01;33.15
6090;BME280;3073;42.660;23.316;2023-04-21T07:44:39;94114.94;;;26.63;35.11
6090;BME280;3073;42.660;23.316;2023-04-21T07:47:06;94123.31;;;28.35;33.00
6090;BME280;3073;42.660;23.316;2023-04-21T07:49:33;94125.34;;;28.48;33.11
6090;BME280;3073;42.660;23.316;2023-04-21T07:52:00;94127.03;;;28.34;32.92
6090;BME280;3073;42.660;23.316;2023-04-21T07:54:27;94121.50;;;29.12;31.96
6090;BME280;3073;42.660;23.316;2023-04-21T07:56:55;94123.25;;;27.52;33.85
6090;BME280;3073;42.660;23.316;2023-04-21T07:59:22;94118.34;;;25.59;35.95
6090;BME280;3073;42.660;23.316;2023-04-21T08:01:48;94119.16;;;24.57;37.64
6090;BME280;3073;42.660;23.316;2023-04-21T08:04:16;94124.63;;;24.95;37.03
6090;BME280;3073;42.660;23.316;2023-04-21T08:06:43;94129.41;;;25.68;36.96
6090;BME280;3073;42.660;23.316;2023-04-21T08:09:09;94134.25;;;27.39;33.94
6090;BME280;3073;42.660;23.316;2023-04-21T08:11:36;94127.38;;;28.29;33.08
6090;BME280;3073;42.660;23.316;2023-04-21T08:14:05;94121.97;;;29.62;31.36
6090;BME280;3073;42.660;23.316;2023-04-21T08:16:34;94119.94;;;25.17;36.47
6090;BME280;3073;42.660;23.316;2023-04-21T08:19:01;94119.00;;;27.22;34.34
6090;BME280;3073;42.660;23.316;2023-04-21T08:21:28;94118.81;;;29.46;31.78
6090;BME280;3073;42.660;23.316;2023-04-21T08:23:56;94129.63;;;29.34;31.75
6090;BME280;3073;42.660;23.316;2023-04-21T08:26:22;94118.25;;;28.23;32.49
6090;BME280;3073;42.660;23.316;2023-04-21T08:28:50;94112.75;;;26.46;34.85
6090;BME280;3073;42.660;23.316;2023-04-21T08:31:18;94111.75;;;30.04;31.32
6090;BME280;3073;42.660;23.316;2023-04-21T08:33:45;94115.06;;;30.81;30.16
6090;BME280;3073;42.660;23.316;2023-04-21T08:36:12;94117.09;;;30.19;30.92
6090;BME280;3073;42.660;23.316;2023-04-21T08:38:41;94124.72;;;27.04;34.00
6090;BME280;3073;42.660;23.316;2023-04-21T08:41:08;94110.16;;;29.01;31.71
6090;BME280;3073;42.660;23.316;2023-04-21T08:43:35;94115.59;;;28.82;31.75
6090;BME280;3073;42.660;23.316;2023-04-21T08:46:05;94115.09;;;29.06;32.00
6090;BME280;3073;42.660;23.316;2023-04-21T08:48:34;94124.84;;;28.69;32.45
6090;BME280;3073;42.660;23.316;2023-04-21T08:51:01;94118.88;;;27.86;32.69
6090;BME280;3073;42.660;23.316;2023-04-21T08:53:28;94108.41;;;28.46;32.56
6090;BME280;3073;42.660;23.316;2023-04-21T08:55:55;94113.50;;;26.46;34.92
6090;BME280;3073;42.660;23.316;2023-04-21T08:58:22;94103.56;;;26.94;34.36
6090;BME280;3073;42.660;23.316;2023-04-21T09:00:49;94111.38;;;28.41;32.79
6090;BME280;3073;42.660;23.316;2023-04-21T09:03:20;94107.91;;;28.33;32.13
6090;BME280;3073;42.660;23.316;2023-04-21T09:05:57;94096.88;;;30.44;30.77
6090;BME280;3073;42.660;23.316;2023-04-21T09:08:25;94106.34;;;28.92;31.90
6090;BME280;3073;42.660;23.316;2023-04-21T09:10:54;94100.47;;;31.86;29.39
6090;BME280;3073;42.660;23.316;2023-04-21T09:13:28;94093.31;;;30.04;30.42
6090;BME280;3073;42.660;23.316;2023-04-21T09:15:55;94091.72;;;30.83;29.69
6090;BME280;3073;42.660;23.316;2023-04-21T09:18:24;94093.81;;;27.40;33.51
6090;BME280;3073;42.660;23.316;2023-04-21T09:21:03;94098.03;;;27.22;33.59
6090;BME280;3073;42.660;23.316;2023-04-21T09:23:38;94083.38;;;29.29;31.82
6090;BME280;3073;42.660;23.316;2023-04-21T09:26:06;94089.47;;;28.00;32.63
6090;BME280;3073;42.660;23.316;2023-04-21T09:28:33;94080.22;;;28.73;32.09
6090;BME280;3073;42.660;23.316;2023-04-21T09:30:59;94079.69;;;28.27;32.57
6090;BME280;3073;42.660;23.316;2023-04-21T09:33:26;94071.25;;;28.40;32.43
6090;BME280;3073;42.660;23.316;2023-04-21T09:35:53;94068.28;;;29.23;30.75
6090;BME280;3073;42.660;23.316;2023-04-21T09:38:21;94069.84;;;27.38;33.14
6090;BME280;3073;42.660;23.316;2023-04-21T09:40:56;94067.94;;;28.80;31.31
6090;BME280;3073;42.660;23.316;2023-04-21T09:43:23;94070.06;;;30.17;29.86
6090;BME280;3073;42.660;23.316;2023-04-21T09:45:51;94071.41;;;31.89;28.15
6090;BME280;3073;42.660;23.316;2023-04-21T09:48:20;94062.63;;;32.35;28.04
6090;BME280;3073;42.660;23.316;2023-04-21T09:50:48;94063.19;;;31.55;28.44
6090;BME280;3073;42.660;23.316;2023-04-21T09:53:18;94064.22;;;30.59;29.38
6090;BME280;3073;42.660;23.316;2023-04-21T09:55:48;94055.69;;;28.25;32.06
6090;BME280;3073;42.660;23.316;2023-04-21T09:58:20;94062.13;;;29.45;30.95
6090;BME280;3073;42.660;23.316;2023-04-21T10:00:48;94063.63;;;30.07;30.30
6090;BME280;3073;42.660;23.316;2023-04-21T10:03:17;94067.63;;;29.29;30.78
6090;BME280;3073;42.660;23.316;2023-04-21T10:05:44;94055.56;;;30.62;28.78
6090;BME280;3073;42.660;23.316;2023-04-21T10:08:11;94051.59;;;26.96;32.52
6090;BME280;3073;42.660;23.316;2023-04-21T10:10:38;94050.06;;;28.59;31.43
6090;BME280;3073;42.660;23.316;2023-04-21T10:13:06;94051.19;;;29.43;30.44
6090;BME280;3073;42.660;23.316;2023-04-21T10:15:37;94048.50;;;26.48;32.23
6090;BME280;3073;42.660;23.316;2023-04-21T10:18:12;94043.75;;;29.52;29.67
6090;BME280;3073;42.660;23.316;2023-04-21T10:20:55;94051.97;;;29.47;29.52
6090;BME280;3073;42.660;23.316;2023-04-21T10:23:28;94046.28;;;29.99;29.17
6090;BME280;3073;42.660;23.316;2023-04-21T10:26:01;94047.97;;;30.43;28.75
6090;BME280;3073;42.660;23.316;2023-04-21T10:28:51;94041.94;;;30.39;30.03
6090;BME280;3073;42.660;23.316;2023-04-21T10:31:27;94041.28;;;29.80;30.47
6090;BME280;3073;42.660;23.316;2023-04-21T10:34:13;94043.53;;;29.24;31.20
6090;BME280;3073;42.660;23.316;2023-04-21T10:37:09;94043.34;;;29.02;31.17
6090;BME280;3073;42.660;23.316;2023-04-21T10:39:50;94044.59;;;29.19;30.92
6090;BME280;3073;42.660;23.316;2023-04-21T10:42:22;94051.69;;;30.35;29.29
6090;BME280;3073;42.660;23.316;2023-04-21T10:44:51;94043.78;;;29.59;29.81
6090;BME280;3073;42.660;23.316;2023-04-21T10:47:27;94049.63;;;28.54;30.70
6090;BME280;3073;42.660;23.316;2023-04-21T10:49:55;94054.84;;;27.87;31.85
6090;BME280;3073;42.660;23.316;2023-04-21T10:52:30;94045.84;;;29.87;29.98
6090;BME280;3073;42.660;23.316;2023-04-21T10:55:06;94057.03;;;28.78;30.83
6090;BME280;3073;42.660;23.316;2023-04-21T10:57:35;94048.34;;;28.71;31.35
6090;BME280;3073;42.660;23.316;2023-04-21T11:00:09;94053.72;;;27.88;31.57
6090;BME280;3073;42.660;23.316;2023-04-21T11:02:37;94056.56;;;28.69;30.69
6090;BME280;3073;42.660;23.316;2023-04-21T11:05:05;94042.63;;;25.78;33.24
6090;BME280;3073;42.660;23.316;2023-04-21T11:07:32;94040.81;;;27.24;32.43
6090;BME280;3073;42.660;23.316;2023-04-21T11:10:01;94038.78;;;27.13;32.49
6090;BME280;3073;42.660;23.316;2023-04-21T11:12:30;94043.47;;;26.40;33.34
6090;BME280;3073;42.660;23.316;2023-04-21T11:14:57;94041.13;;;26.54;33.45
6090;BME280;3073;42.660;23.316;2023-04-21T11:17:24;94042.56;;;28.25;30.58
6090;BME280;3073;42.660;23.316;2023-04-21T11:19:54;94035.69;;;31.10;28.70
6090;BME280;3073;42.660;23.316;2023-04-21T11:22:22;94033.47;;;33.14;26.55
6090;BME280;3073;42.660;23.316;2023-04-21T11:24:50;94026.63;;;31.57;28.03
6090;BME280;3073;42.660;23.316;2023-04-21T11:27:18;94040.22;;;31.31;27.55
6090;BME280;3073;42.660;23.316;2023-04-21T11:29:55;94038.94;;;32.06;27.07
6090;BME280;3073;42.660;23.316;2023-04-21T11:32:26;94030.00;;;31.65;27.35
6090;BME280;3073;42.660;23.316;2023-04-21T11:34:55;94036.22;;;32.31;27.12
6090;BME280;3073;42.660;23.316;2023-04-21T11:37:23;94028.91;;;31.17;27.14
6090;BME280;3073;42.660;23.316;2023-04-21T11:39:58;94033.13;;;27.90;30.94
6090;BME280;3073;42.660;23.316;2023-04-21T11:42:26;94046.22;;;29.85;29.47
6090;BME280;3073;42.660;23.316;2023-04-21T11:44:54;94041.97;;;29.19;29.90
6090;BME280;3073;42.660;23.316;2023-04-21T11:47:24;94039.16;;;28.57;30.64
6090;BME280;3073;42.660;23.316;2023-04-21T11:49:52;94030.47;;;27.87;31.24
6090;BME280;3073;42.660;23.316;2023-04-21T11:52:25;94030.19;;;26.90;31.95
6090;BME280;3073;42.660;23.316;2023-04-21T11:54:57;94031.19;;;28.84;30.32
6090;BME280;3073;42.660;23.316;2023-04-21T11:57:25;94036.84;;;29.30;29.63
6090;BME280;3073;42.660;23.316;2023-04-21T11:59:52;94034.72;;;29.53;29.25
6090;BME280;3073;42.660;23.316;2023-04-21T12:02:23;94038.75;;;28.19;29.86
6090;BME280;3073;42.660;23.316;2023-04-21T12:04:58;94034.53;;;26.83;31.24
6090;BME280;3073;42.660;23.316;2023-04-21T12:07:30;94039.94;;;26.93;31.14
6090;BME280;3073;42.660;23.316;2023-04-21T12:09:57;94045.50;;;28.53;29.93
6090;BME280;3073;42.660;23.316;2023-04-21T12:12:24;94036.38;;;29.75;28.65
6090;BME280;3073;42.660;23.316;2023-04-21T12:14:51;94038.59;;;28.71;29.03
6090;BME280;3073;42.660;23.316;2023-04-21T12:17:18;94050.72;;;28.86;28.49
6090;BME280;3073;42.660;23.316;2023-04-21T12:19:46;94046.25;;;28.53;28.98
6090;BME280;3073;42.660;23.316;2023-04-21T12:22:14;94044.69;;;28.16;29.50
6090;BME280;3073;42.660;23.316;2023-04-21T12:24:44;94039.38;;;29.74;27.80
6090;BME280;3073;42.660;23.316;2023-04-21T12:27:11;94040.19;;;30.99;27.46
6090;BME280;3073;42.660;23.316;2023-04-21T12:29:38;94045.75;;;30.52;27.72
6090;BME280;3073;42.660;23.316;2023-04-21T12:32:06;94048.69;;;28.69;28.98
6090;BME280;3073;42.660;23.316;2023-04-21T12:34:33;94045.28;;;29.05;28.78
6090;BME280;3073;42.660;23.316;2023-04-21T12:37:00;94041.97;;;29.19;28.59
6090;BME280;3073;42.660;23.316;2023-04-21T12:39:27;94038.34;;;29.31;28.26
6090;BME280;3073;42.660;23.316;2023-04-21T12:41:56;94036.72;;;29.16;28.46
6090;BME280;3073;42.660;23.316;2023-04-21T12:44:23;94038.78;;;27.13;30.06
6090;BME280;3073;42.660;23.316;2023-04-21T12:46:50;94033.53;;;27.92;30.11
6090;BME280;3073;42.660;23.316;2023-04-21T12:49:17;94029.59;;;26.17;31.17
6090;BME280;3073;42.660;23.316;2023-04-21T12:51:44;94033.56;;;28.26;29.21
6090;BME280;3073;42.660;23.316;2023-04-21T12:54:11;94032.72;;;27.58;30.02
6090;BME280;3073;42.660;23.316;2023-04-21T12:56:38;94022.97;;;28.15;29.70
6090;BME280;3073;42.660;23.316;2023-04-21T12:59:08;94025.38;;;29.59;28.72
6090;BME280;3073;42.660;23.316;2023-04-21T13:01:36;94024.91;;;29.43;28.70
6090;BME280;3073;42.660;23.316;2023-04-21T13:04:03;94024.34;;;31.63;27.38
6090;BME280;3073;42.660;23.316;2023-04-21T13:06:31;94027.03;;;31.10;27.71
6090;BME280;3073;42.660;23.316;2023-04-21T13:08:58;94028.09;;;31.76;27.11
6090;BME280;3073;42.660;23.316;2023-04-21T13:11:26;94030.78;;;31.41;27.41
6090;BME280;3073;42.660;23.316;2023-04-21T13:13:53;94020.50;;;30.40;28.19